S 386 Casilo — OZZP — position and weather

sailwx.info

Track history (hours):
 
Tides and Currents Weather Stations Pressure Air Temp Water Temp Dewpoint Dewpoint Depression Visibility Wind Speed Wind Dir Waves Ship Positions

S 386 Casilo

Last reported at 2016-Jul-28 07:05 UTC. Time now 2016-Jul-28 10:32 UTC.
Position N 57°46' E 010°45'.

Length 24 m.

Type: Fishing. MMSI: 219948000.

Date/timePositionNaut miles runAvg speedWind from/ knotsBaromVisibWave heightAir tempDewpointWater temp
2016-Jul-28 07:05N 57°46' E 010°45'4 8.2
2016-Jul-28 06:33N 57°51' E 010°48'8 8.1
2016-Jul-28 05:32N 57°59' E 010°46'5 5.3
2016-Jul-28 04:34N 58°04' E 010°44'1 1.4
2016-Jul-28 03:33N 58°05' E 010°42'2 1.8
2016-Jul-28 02:33N 58°06' E 010°40'2 1.8
2016-Jul-28 01:33N 58°07' E 010°38'2 1.8
2016-Jul-28 00:33N 58°09' E 010°35'2 1.8
2016-Jul-27 23:33N 58°10' E 010°33'2 1.8
2016-Jul-27 22:33N 58°11' E 010°30'2 1.8
2016-Jul-27 21:33N 58°11' E 010°26'9 1.7
2016-Jul-27 16:34N 58°08' E 010°11'9 9.1
2016-Jul-27 15:33N 58°08' E 010°28'6 6.4
2016-Jul-27 14:33N 58°06' E 010°40'1 1.3
2016-Jul-27 13:33N 58°07' E 010°38'2 1.8
2016-Jul-27 12:33N 58°09' E 010°36'2 1.7
2016-Jul-27 11:34N 58°10' E 010°34'2 1.9
2016-Jul-27 10:33N 58°11' E 010°31'8 1.1
2016-Jul-27 03:32N 58°10' E 010°16'8 8.3
2016-Jul-27 02:33N 58°13' E 010°30'8 7.9
2016-Jul-27 01:33N 58°15' E 010°45'8 8.1
2016-Jul-27 00:33N 58°17' E 010°60'8 8.0
2016-Jul-26 23:33N 58°20' E 011°14'1 1.1
2016-Jul-26 22:33N 58°21' E 011°14'2 2.2
2016-Jul-26 21:33N 58°20' E 011°10'8 8.0
2016-Jul-26 20:33N 58°24' E 010°57'8 7.9
2016-Jul-26 19:33N 58°28' E 010°44'7 6.6
2016-Jul-26 18:33N 58°32' E 010°34'1 1.1
2016-Jul-26 17:33N 58°32' E 010°32'2 1.5
2016-Jul-26 16:33N 58°33' E 010°30'2 1.5
2016-Jul-26 15:29N 58°35' E 010°29'1 1.5
2016-Jul-26 14:32N 58°36' E 010°28'2 1.5
2016-Jul-26 13:31N 58°37' E 010°26'1 1.5
2016-Jul-26 12:34N 58°38' E 010°24'1 1.0
2016-Jul-26 11:32N 58°39' E 010°22'2 2.0
2016-Jul-26 10:33N 58°37' E 010°24'2 2.1
2016-Jul-26 09:33N 58°35' E 010°26'2 2.1
2016-Jul-26 08:33N 58°33' E 010°28'2 2.0
2016-Jul-26 07:30N 58°31' E 010°30'4 4.1
2016-Jul-26 06:29N 58°35' E 010°26'8 8.8
2016-Jul-26 05:33N 58°42' E 010°17'4 4.1
2016-Jul-26 04:33N 58°46' E 010°16'2 1.7
2016-Jul-26 03:33N 58°44' E 010°18'2 1.9
2016-Jul-26 02:34N 58°43' E 010°21'2 1.9
2016-Jul-26 01:33N 58°42' E 010°23'2 1.9
2016-Jul-26 00:33N 58°40' E 010°25'2 2.1
2016-Jul-25 23:33N 58°38' E 010°27'2 2.1
2016-Jul-25 22:34N 58°36' E 010°29'2 2.1
2016-Jul-25 21:33N 58°35' E 010°31'2 2.0
2016-Jul-25 20:33N 58°33' E 010°32'3 2.5
2016-Jul-25 19:33N 58°30' E 010°34'6 5.7
2016-Jul-25 18:33N 58°35' E 010°28'8 8.4
2016-Jul-25 17:33N 58°42' E 010°19'7 7.0
2016-Jul-25 16:33N 58°48' E 010°11'1 1.2
2016-Jul-25 15:34N 58°47' E 010°13'2 1.9
2016-Jul-25 14:33N 58°45' E 010°15'2 2.0
2016-Jul-25 13:32N 58°43' E 010°16'2 1.9
2016-Jul-25 12:33N 58°42' E 010°18'2 1.9
2016-Jul-25 11:33N 58°40' E 010°20'2 2.0
2016-Jul-25 10:33N 58°38' E 010°21'2 2.0
2016-Jul-25 09:33N 58°37' E 010°23'2 2.0
2016-Jul-25 08:33N 58°35' E 010°25'2 2.0
2016-Jul-25 07:33N 58°33' E 010°28'2 2.0
2016-Jul-25 06:33N 58°32' E 010°30'2 2.1
2016-Jul-25 05:33N 58°30' E 010°32'3 2.6
2016-Jul-25 04:33N 58°29' E 010°37'9 9.4
2016-Jul-25 03:33N 58°25' E 010°53'10 9.6
2016-Jul-25 02:34N 58°21' E 011°10'2 2.3
2016-Jul-25 01:33N 58°21' E 011°14'0 0.0
2016-Jul-25 00:33N 58°21' E 011°14'6 6.0
2016-Jul-24 23:34N 58°25' E 011°05'8 8.1
2016-Jul-24 22:34N 58°30' E 010°53'8 8.0
2016-Jul-24 21:34N 58°35' E 010°41'8 8.3
2016-Jul-24 20:33N 58°40' E 010°28'1 1.3
2016-Jul-24 19:33N 58°41' E 010°26'2 2.0
2016-Jul-24 18:33N 58°39' E 010°28'2 1.9
2016-Jul-24 17:33N 58°37' E 010°29'2 1.9
2016-Jul-24 16:34N 58°35' E 010°31'2 1.9
2016-Jul-24 15:33N 58°34' E 010°33'2 2.0
2016-Jul-24 14:33N 58°32' E 010°34'2 1.9
2016-Jul-24 13:33N 58°31' E 010°37'2 1.9
2016-Jul-24 12:34N 58°29' E 010°39'2 2.1
2016-Jul-24 11:33N 58°27' E 010°40'2 2.3
2016-Jul-24 10:33N 58°25' E 010°42'4 4.0
2016-Jul-24 09:33N 58°29' E 010°39'9 8.8
2016-Jul-24 08:33N 58°36' E 010°29'9 8.6
2016-Jul-24 07:33N 58°43' E 010°20'1 1.0
2016-Jul-24 06:33N 58°43' E 010°22'2 1.9
2016-Jul-24 05:33N 58°42' E 010°25'2 2.0
2016-Jul-24 04:33N 58°40' E 010°26'2 2.0
2016-Jul-24 03:33N 58°38' E 010°28'2 2.0
2016-Jul-24 02:33N 58°36' E 010°30'2 2.0
2016-Jul-24 01:33N 58°35' E 010°31'2 1.8
2016-Jul-24 00:33N 58°33' E 010°33'2 1.9
2016-Jul-23 23:34N 58°31' E 010°34'2 2.0
2016-Jul-23 22:33N 58°29' E 010°35'9 8.9
2016-Jul-23 21:33N 58°36' E 010°25'7 7.0
2016-Jul-23 20:34N 58°42' E 010°16'2 1.5
2016-Jul-23 19:33N 58°40' E 010°18'2 1.9
2016-Jul-23 18:34N 58°39' E 010°19'2 1.9
2016-Jul-23 17:33N 58°37' E 010°22'2 2.0
2016-Jul-23 16:33N 58°36' E 010°24'2 1.9
2016-Jul-23 15:33N 58°34' E 010°26'2 2.0
2016-Jul-23 14:33N 58°32' E 010°28'2 2.1
2016-Jul-23 13:33N 58°30' E 010°29'2 1.6
2016-Jul-23 12:33N 58°29' E 010°31'5 5.3
2016-Jul-23 11:33N 58°34' E 010°26'1 0.9
2016-Jul-23 10:33N 58°33' E 010°27'2 1.9
2016-Jul-23 09:33N 58°31' E 010°28'2 2.0
2016-Jul-23 08:34N 58°29' E 010°30'2 1.7
2016-Jul-23 07:33N 58°31' E 010°29'8 8.4
2016-Jul-23 06:33N 58°38' E 010°19'13 6.2
2016-Jul-23 04:33N 58°48' E 010°07'1 1.4
2016-Jul-23 03:33N 58°48' E 010°09'2 1.7
2016-Jul-23 02:33N 58°46' E 010°11'2 1.8
2016-Jul-23 01:33N 58°45' E 010°13'2 1.8
2016-Jul-23 00:33N 58°43' E 010°15'2 1.8
2016-Jul-22 23:33N 58°42' E 010°18'2 2.0
2016-Jul-22 22:31N 58°40' E 010°20'2 2.0
2016-Jul-22 21:33N 58°39' E 010°22'2 2.0
2016-Jul-22 20:33N 58°37' E 010°24'2 2.2
2016-Jul-22 19:33N 58°35' E 010°27'2 2.1
2016-Jul-22 18:34N 58°33' E 010°28'2 2.5
2016-Jul-22 17:33N 58°31' E 010°30'7 6.9
2016-Jul-22 16:33N 58°26' E 010°21'10 9.6
2016-Jul-22 15:34N 58°18' E 010°10'10 9.7
2016-Jul-22 14:33N 58°10' E 009°59'1 1.0
2016-Jul-22 13:33N 58°10' E 009°57'2 1.8
2016-Jul-22 12:24N 58°09' E 009°54'2 1.8
2016-Jul-22 11:33N 58°08' E 009°51'2 1.9
2016-Jul-22 10:31N 58°07' E 009°48'13 1.8
2016-Jul-22 03:17N 58°00' E 009°27'18 3.6
2016-Jul-21 22:21N 57°54' E 009°59'7 9.1
2016-Jul-21 21:33N 57°51' E 010°12'10 9.7
2016-Jul-21 20:33N 57°50' E 010°29'8 8.2
2016-Jul-21 19:32N 57°44' E 010°41'3 3.0
2016-Jul-21 18:31N 57°43' E 010°36'0 0.0
2016-Jul-21 17:34N 57°43' E 010°36'0 0.0
2016-Jul-21 16:33N 57°43' E 010°36'0 0.0
2016-Jul-21 15:20N 57°43' E 010°36'0 0.0
2016-Jul-21 14:24N 57°43' E 010°36'0 0.0
2016-Jul-21 13:33N 57°43' E 010°36'0 0.0
2016-Jul-21 12:32N 57°43' E 010°36'0 0.2
2016-Jul-21 11:33N 57°43' E 010°36'6 5.7
2016-Jul-21 10:33N 57°48' E 010°42'8 8.4
2016-Jul-21 09:33N 57°56' E 010°38'9 9.0
2016-Jul-21 08:33N 58°04' E 010°33'9 8.7
2016-Jul-21 07:34N 58°13' E 010°27'9 8.9
2016-Jul-21 06:33N 58°21' E 010°21'9 8.8
2016-Jul-21 05:33N 58°29' E 010°16'9 8.7
2016-Jul-21 04:33N 58°37' E 010°11'9 8.7
2016-Jul-21 03:34N 58°46' E 010°06'1 1.2
2016-Jul-21 02:33N 58°47' E 010°06'2 1.9
2016-Jul-21 01:34N 58°45' E 010°08'2 1.9
2016-Jul-21 00:33N 58°44' E 010°11'2 1.9
2016-Jul-20 23:34N 58°43' E 010°13'2 1.9
2016-Jul-20 22:33N 58°41' E 010°16'2 1.9
2016-Jul-20 21:33N 58°40' E 010°18'2 1.9
2016-Jul-20 20:33N 58°38' E 010°20'2 1.9
2016-Jul-20 19:33N 58°37' E 010°22'2 1.9
2016-Jul-20 18:33N 58°35' E 010°24'2 2.0
2016-Jul-20 17:34N 58°33' E 010°26'8 7.8
2016-Jul-20 16:33N 58°41' E 010°21'4 4.2
2016-Jul-20 15:33N 58°44' E 010°17'1 1.4
2016-Jul-20 14:33N 58°43' E 010°19'2 1.9
2016-Jul-20 13:34N 58°42' E 010°21'2 1.9
2016-Jul-20 12:33N 58°40' E 010°23'2 1.8
2016-Jul-20 11:34N 58°39' E 010°24'2 1.9
2016-Jul-20 10:33N 58°37' E 010°26'2 2.0
2016-Jul-20 09:33N 58°35' E 010°28'3 2.5
2016-Jul-20 08:33N 58°33' E 010°30'8 8.0
2016-Jul-20 07:33N 58°28' E 010°41'1010.3
2016-Jul-20 06:34N 58°23' E 010°59'8 8.4
2016-Jul-20 05:33N 58°21' E 011°14'0 0.4
2016-Jul-20 04:33N 58°21' E 011°14'0 0.0
2016-Jul-20 03:33N 58°21' E 011°14'3 3.4
2016-Jul-20 02:33N 58°19' E 011°09'4 4.2
2016-Jul-20 01:33N 58°23' E 011°04'5 4.7
2016-Jul-20 00:33N 58°25' E 010°56'5 4.6
2016-Jul-19 23:33N 58°27' E 010°49'5 4.8
2016-Jul-19 22:33N 58°30' E 010°41'5 4.9
2016-Jul-19 21:33N 58°33' E 010°33'7 6.5
2016-Jul-19 20:30N 58°38' E 010°24'8 8.0
2016-Jul-19 19:33N 58°44' E 010°15'4 3.6
2016-Jul-19 18:33N 58°47' E 010°12'1 1.3
2016-Jul-19 17:33N 58°46' E 010°14'2 1.8
2016-Jul-19 16:33N 58°45' E 010°16'2 1.8
2016-Jul-19 15:33N 58°43' E 010°19'2 1.8
2016-Jul-19 14:33N 58°42' E 010°21'2 1.8
2016-Jul-19 13:33N 58°41' E 010°23'2 1.9
2016-Jul-19 12:33N 58°39' E 010°25'2 2.0
2016-Jul-19 11:33N 58°37' E 010°27'2 1.9
2016-Jul-19 10:33N 58°35' E 010°28'0 0.1
2016-Jul-19 09:33N 58°35' E 010°29'8 8.4
2016-Jul-19 08:33N 58°42' E 010°19'8 7.8
2016-Jul-19 07:33N 58°48' E 010°10'5 1.7
2016-Jul-19 04:34N 58°45' E 010°17'2 1.8
2016-Jul-19 03:33N 58°44' E 010°19'2 1.8
2016-Jul-19 02:33N 58°42' E 010°21'2 1.9
2016-Jul-19 01:33N 58°40' E 010°23'2 1.9
2016-Jul-19 00:34N 58°39' E 010°25'2 2.0
2016-Jul-18 23:33N 58°37' E 010°27'2 1.9
2016-Jul-18 22:33N 58°35' E 010°28'2 1.9
2016-Jul-18 21:33N 58°37' E 010°25'8 8.1
2016-Jul-18 20:33N 58°43' E 010°16'8 8.1
2016-Jul-18 19:34N 58°50' E 010°07'1 0.8
2016-Jul-18 18:33N 58°49' E 010°08'2 1.8
2016-Jul-18 17:33N 58°48' E 010°11'2 1.9
2016-Jul-18 16:33N 58°47' E 010°13'2 1.9
2016-Jul-18 15:33N 58°45' E 010°16'2 1.9
2016-Jul-18 14:33N 58°44' E 010°18'2 2.0
2016-Jul-18 13:33N 58°42' E 010°20'2 2.0
2016-Jul-18 12:33N 58°41' E 010°22'2 1.9
2016-Jul-18 11:33N 58°39' E 010°24'2 1.8
2016-Jul-18 10:33N 58°37' E 010°26'2 1.9
2016-Jul-18 09:33N 58°36' E 010°27'2 2.3
2016-Jul-18 08:33N 58°34' E 010°29'9 8.9
2016-Jul-18 07:33N 58°29' E 010°43'  
Track history (hours):
 
Tides and Currents Weather Stations Pressure Air Temp Water Temp Dewpoint Dewpoint Depression Visibility Wind Speed Wind Dir Waves Ship Positions

S 386 Casilo

Last reported at 2016-Jul-28 07:05 UTC. Time now 2016-Jul-28 10:32 UTC.
Position N 57°46' E 010°45'.

Length 24 m.

Type: Fishing. MMSI: 219948000.

Date/timePositionNaut miles runAvg speedWind from/ knotsBaromVisibWave heightAir tempDewpointWater temp
2016-Jul-28 07:05N 57°46' E 010°45'4 8.2
2016-Jul-28 06:33N 57°51' E 010°48'8 8.1
2016-Jul-28 05:32N 57°59' E 010°46'5 5.3
2016-Jul-28 04:34N 58°04' E 010°44'1 1.4
2016-Jul-28 03:33N 58°05' E 010°42'2 1.8
2016-Jul-28 02:33N 58°06' E 010°40'2 1.8
2016-Jul-28 01:33N 58°07' E 010°38'2 1.8
2016-Jul-28 00:33N 58°09' E 010°35'2 1.8
2016-Jul-27 23:33N 58°10' E 010°33'2 1.8
2016-Jul-27 22:33N 58°11' E 010°30'2 1.8
2016-Jul-27 21:33N 58°11' E 010°26'9 1.7
2016-Jul-27 16:34N 58°08' E 010°11'9 9.1
2016-Jul-27 15:33N 58°08' E 010°28'6 6.4
2016-Jul-27 14:33N 58°06' E 010°40'1 1.3
2016-Jul-27 13:33N 58°07' E 010°38'2 1.8
2016-Jul-27 12:33N 58°09' E 010°36'2 1.7
2016-Jul-27 11:34N 58°10' E 010°34'2 1.9
2016-Jul-27 10:33N 58°11' E 010°31'8 1.1
2016-Jul-27 03:32N 58°10' E 010°16'8 8.3
2016-Jul-27 02:33N 58°13' E 010°30'8 7.9
2016-Jul-27 01:33N 58°15' E 010°45'8 8.1
2016-Jul-27 00:33N 58°17' E 010°60'8 8.0
2016-Jul-26 23:33N 58°20' E 011°14'1 1.1
2016-Jul-26 22:33N 58°21' E 011°14'2 2.2
2016-Jul-26 21:33N 58°20' E 011°10'8 8.0
2016-Jul-26 20:33N 58°24' E 010°57'8 7.9
2016-Jul-26 19:33N 58°28' E 010°44'7 6.6
2016-Jul-26 18:33N 58°32' E 010°34'1 1.1
2016-Jul-26 17:33N 58°32' E 010°32'2 1.5
2016-Jul-26 16:33N 58°33' E 010°30'2 1.5
2016-Jul-26 15:29N 58°35' E 010°29'1 1.5
2016-Jul-26 14:32N 58°36' E 010°28'2 1.5
2016-Jul-26 13:31N 58°37' E 010°26'1 1.5
2016-Jul-26 12:34N 58°38' E 010°24'1 1.0
2016-Jul-26 11:32N 58°39' E 010°22'2 2.0
2016-Jul-26 10:33N 58°37' E 010°24'2 2.1
2016-Jul-26 09:33N 58°35' E 010°26'2 2.1
2016-Jul-26 08:33N 58°33' E 010°28'2 2.0
2016-Jul-26 07:30N 58°31' E 010°30'4 4.1
2016-Jul-26 06:29N 58°35' E 010°26'8 8.8
2016-Jul-26 05:33N 58°42' E 010°17'4 4.1
2016-Jul-26 04:33N 58°46' E 010°16'2 1.7
2016-Jul-26 03:33N 58°44' E 010°18'2 1.9
2016-Jul-26 02:34N 58°43' E 010°21'2 1.9
2016-Jul-26 01:33N 58°42' E 010°23'2 1.9
2016-Jul-26 00:33N 58°40' E 010°25'2 2.1
2016-Jul-25 23:33N 58°38' E 010°27'2 2.1
2016-Jul-25 22:34N 58°36' E 010°29'2 2.1
2016-Jul-25 21:33N 58°35' E 010°31'2 2.0
2016-Jul-25 20:33N 58°33' E 010°32'3 2.5
2016-Jul-25 19:33N 58°30' E 010°34'6 5.7
2016-Jul-25 18:33N 58°35' E 010°28'8 8.4
2016-Jul-25 17:33N 58°42' E 010°19'7 7.0
2016-Jul-25 16:33N 58°48' E 010°11'1 1.2
2016-Jul-25 15:34N 58°47' E 010°13'2 1.9
2016-Jul-25 14:33N 58°45' E 010°15'2 2.0
2016-Jul-25 13:32N 58°43' E 010°16'2 1.9
2016-Jul-25 12:33N 58°42' E 010°18'2 1.9
2016-Jul-25 11:33N 58°40' E 010°20'2 2.0
2016-Jul-25 10:33N 58°38' E 010°21'2 2.0
2016-Jul-25 09:33N 58°37' E 010°23'2 2.0
2016-Jul-25 08:33N 58°35' E 010°25'2 2.0
2016-Jul-25 07:33N 58°33' E 010°28'2 2.0
2016-Jul-25 06:33N 58°32' E 010°30'2 2.1
2016-Jul-25 05:33N 58°30' E 010°32'3 2.6
2016-Jul-25 04:33N 58°29' E 010°37'9 9.4
2016-Jul-25 03:33N 58°25' E 010°53'10 9.6
2016-Jul-25 02:34N 58°21' E 011°10'2 2.3
2016-Jul-25 01:33N 58°21' E 011°14'0 0.0
2016-Jul-25 00:33N 58°21' E 011°14'6 6.0
2016-Jul-24 23:34N 58°25' E 011°05'8 8.1
2016-Jul-24 22:34N 58°30' E 010°53'8 8.0
2016-Jul-24 21:34N 58°35' E 010°41'8 8.3
2016-Jul-24 20:33N 58°40' E 010°28'1 1.3
2016-Jul-24 19:33N 58°41' E 010°26'2 2.0
2016-Jul-24 18:33N 58°39' E 010°28'2 1.9
2016-Jul-24 17:33N 58°37' E 010°29'2 1.9
2016-Jul-24 16:34N 58°35' E 010°31'2 1.9
2016-Jul-24 15:33N 58°34' E 010°33'2 2.0
2016-Jul-24 14:33N 58°32' E 010°34'2 1.9
2016-Jul-24 13:33N 58°31' E 010°37'2 1.9
2016-Jul-24 12:34N 58°29' E 010°39'2 2.1
2016-Jul-24 11:33N 58°27' E 010°40'2 2.3
2016-Jul-24 10:33N 58°25' E 010°42'4 4.0
2016-Jul-24 09:33N 58°29' E 010°39'9 8.8
2016-Jul-24 08:33N 58°36' E 010°29'9 8.6
2016-Jul-24 07:33N 58°43' E 010°20'1 1.0
2016-Jul-24 06:33N 58°43' E 010°22'2 1.9
2016-Jul-24 05:33N 58°42' E 010°25'2 2.0
2016-Jul-24 04:33N 58°40' E 010°26'2 2.0
2016-Jul-24 03:33N 58°38' E 010°28'2 2.0
2016-Jul-24 02:33N 58°36' E 010°30'2 2.0
2016-Jul-24 01:33N 58°35' E 010°31'2 1.8
2016-Jul-24 00:33N 58°33' E 010°33'2 1.9
2016-Jul-23 23:34N 58°31' E 010°34'2 2.0
2016-Jul-23 22:33N 58°29' E 010°35'9 8.9
2016-Jul-23 21:33N 58°36' E 010°25'7 7.0
2016-Jul-23 20:34N 58°42' E 010°16'2 1.5
2016-Jul-23 19:33N 58°40' E 010°18'2 1.9
2016-Jul-23 18:34N 58°39' E 010°19'2 1.9
2016-Jul-23 17:33N 58°37' E 010°22'2 2.0
2016-Jul-23 16:33N 58°36' E 010°24'2 1.9
2016-Jul-23 15:33N 58°34' E 010°26'2 2.0
2016-Jul-23 14:33N 58°32' E 010°28'2 2.1
2016-Jul-23 13:33N 58°30' E 010°29'2 1.6
2016-Jul-23 12:33N 58°29' E 010°31'5 5.3
2016-Jul-23 11:33N 58°34' E 010°26'1 0.9
2016-Jul-23 10:33N 58°33' E 010°27'2 1.9
2016-Jul-23 09:33N 58°31' E 010°28'2 2.0
2016-Jul-23 08:34N 58°29' E 010°30'2 1.7
2016-Jul-23 07:33N 58°31' E 010°29'8 8.4
2016-Jul-23 06:33N 58°38' E 010°19'13 6.2
2016-Jul-23 04:33N 58°48' E 010°07'1 1.4
2016-Jul-23 03:33N 58°48' E 010°09'2 1.7
2016-Jul-23 02:33N 58°46' E 010°11'2 1.8
2016-Jul-23 01:33N 58°45' E 010°13'2 1.8
2016-Jul-23 00:33N 58°43' E 010°15'2 1.8
2016-Jul-22 23:33N 58°42' E 010°18'2 2.0
2016-Jul-22 22:31N 58°40' E 010°20'2 2.0
2016-Jul-22 21:33N 58°39' E 010°22'2 2.0
2016-Jul-22 20:33N 58°37' E 010°24'2 2.2
2016-Jul-22 19:33N 58°35' E 010°27'2 2.1
2016-Jul-22 18:34N 58°33' E 010°28'2 2.5
2016-Jul-22 17:33N 58°31' E 010°30'7 6.9
2016-Jul-22 16:33N 58°26' E 010°21'10 9.6
2016-Jul-22 15:34N 58°18' E 010°10'10 9.7
2016-Jul-22 14:33N 58°10' E 009°59'1 1.0
2016-Jul-22 13:33N 58°10' E 009°57'2 1.8
2016-Jul-22 12:24N 58°09' E 009°54'2 1.8
2016-Jul-22 11:33N 58°08' E 009°51'2 1.9
2016-Jul-22 10:31N 58°07' E 009°48'13 1.8
2016-Jul-22 03:17N 58°00' E 009°27'18 3.6
2016-Jul-21 22:21N 57°54' E 009°59'7 9.1
2016-Jul-21 21:33N 57°51' E 010°12'10 9.7
2016-Jul-21 20:33N 57°50' E 010°29'8 8.2
2016-Jul-21 19:32N 57°44' E 010°41'3 3.0
2016-Jul-21 18:31N 57°43' E 010°36'0 0.0
2016-Jul-21 17:34N 57°43' E 010°36'0 0.0
2016-Jul-21 16:33N 57°43' E 010°36'0 0.0
2016-Jul-21 15:20N 57°43' E 010°36'0 0.0
2016-Jul-21 14:24N 57°43' E 010°36'0 0.0
2016-Jul-21 13:33N 57°43' E 010°36'0 0.0
2016-Jul-21 12:32N 57°43' E 010°36'0 0.2
2016-Jul-21 11:33N 57°43' E 010°36'6 5.7
2016-Jul-21 10:33N 57°48' E 010°42'8 8.4
2016-Jul-21 09:33N 57°56' E 010°38'9 9.0
2016-Jul-21 08:33N 58°04' E 010°33'9 8.7
2016-Jul-21 07:34N 58°13' E 010°27'9 8.9
2016-Jul-21 06:33N 58°21' E 010°21'9 8.8
2016-Jul-21 05:33N 58°29' E 010°16'9 8.7
2016-Jul-21 04:33N 58°37' E 010°11'9 8.7
2016-Jul-21 03:34N 58°46' E 010°06'1 1.2
2016-Jul-21 02:33N 58°47' E 010°06'2 1.9
2016-Jul-21 01:34N 58°45' E 010°08'2 1.9
2016-Jul-21 00:33N 58°44' E 010°11'2 1.9
2016-Jul-20 23:34N 58°43' E 010°13'2 1.9
2016-Jul-20 22:33N 58°41' E 010°16'2 1.9
2016-Jul-20 21:33N 58°40' E 010°18'2 1.9
2016-Jul-20 20:33N 58°38' E 010°20'2 1.9
2016-Jul-20 19:33N 58°37' E 010°22'2 1.9
2016-Jul-20 18:33N 58°35' E 010°24'2 2.0
2016-Jul-20 17:34N 58°33' E 010°26'8 7.8
2016-Jul-20 16:33N 58°41' E 010°21'4 4.2
2016-Jul-20 15:33N 58°44' E 010°17'1 1.4
2016-Jul-20 14:33N 58°43' E 010°19'2 1.9
2016-Jul-20 13:34N 58°42' E 010°21'2 1.9
2016-Jul-20 12:33N 58°40' E 010°23'2 1.8
2016-Jul-20 11:34N 58°39' E 010°24'2 1.9
2016-Jul-20 10:33N 58°37' E 010°26'2 2.0
2016-Jul-20 09:33N 58°35' E 010°28'3 2.5
2016-Jul-20 08:33N 58°33' E 010°30'8 8.0
2016-Jul-20 07:33N 58°28' E 010°41'1010.3
2016-Jul-20 06:34N 58°23' E 010°59'8 8.4
2016-Jul-20 05:33N 58°21' E 011°14'0 0.4
2016-Jul-20 04:33N 58°21' E 011°14'0 0.0
2016-Jul-20 03:33N 58°21' E 011°14'3 3.4
2016-Jul-20 02:33N 58°19' E 011°09'4 4.2
2016-Jul-20 01:33N 58°23' E 011°04'5 4.7
2016-Jul-20 00:33N 58°25' E 010°56'5 4.6
2016-Jul-19 23:33N 58°27' E 010°49'5 4.8
2016-Jul-19 22:33N 58°30' E 010°41'5 4.9
2016-Jul-19 21:33N 58°33' E 010°33'7 6.5
2016-Jul-19 20:30N 58°38' E 010°24'8 8.0
2016-Jul-19 19:33N 58°44' E 010°15'4 3.6
2016-Jul-19 18:33N 58°47' E 010°12'1 1.3
2016-Jul-19 17:33N 58°46' E 010°14'2 1.8
2016-Jul-19 16:33N 58°45' E 010°16'2 1.8
2016-Jul-19 15:33N 58°43' E 010°19'2 1.8
2016-Jul-19 14:33N 58°42' E 010°21'2 1.8
2016-Jul-19 13:33N 58°41' E 010°23'2 1.9
2016-Jul-19 12:33N 58°39' E 010°25'2 2.0
2016-Jul-19 11:33N 58°37' E 010°27'2 1.9
2016-Jul-19 10:33N 58°35' E 010°28'0 0.1
2016-Jul-19 09:33N 58°35' E 010°29'8 8.4
2016-Jul-19 08:33N 58°42' E 010°19'8 7.8
2016-Jul-19 07:33N 58°48' E 010°10'5 1.7
2016-Jul-19 04:34N 58°45' E 010°17'2 1.8
2016-Jul-19 03:33N 58°44' E 010°19'2 1.8
2016-Jul-19 02:33N 58°42' E 010°21'2 1.9
2016-Jul-19 01:33N 58°40' E 010°23'2 1.9
2016-Jul-19 00:34N 58°39' E 010°25'2 2.0
2016-Jul-18 23:33N 58°37' E 010°27'2 1.9
2016-Jul-18 22:33N 58°35' E 010°28'2 1.9
2016-Jul-18 21:33N 58°37' E 010°25'8 8.1
2016-Jul-18 20:33N 58°43' E 010°16'8 8.1
2016-Jul-18 19:34N 58°50' E 010°07'1 0.8
2016-Jul-18 18:33N 58°49' E 010°08'2 1.8
2016-Jul-18 17:33N 58°48' E 010°11'2 1.9
2016-Jul-18 16:33N 58°47' E 010°13'2 1.9
2016-Jul-18 15:33N 58°45' E 010°16'2 1.9
2016-Jul-18 14:33N 58°44' E 010°18'2 2.0
2016-Jul-18 13:33N 58°42' E 010°20'2 2.0
2016-Jul-18 12:33N 58°41' E 010°22'2 1.9
2016-Jul-18 11:33N 58°39' E 010°24'2 1.8
2016-Jul-18 10:33N 58°37' E 010°26'2 1.9
2016-Jul-18 09:33N 58°36' E 010°27'2 2.3
2016-Jul-18 08:33N 58°34' E 010°29'9 8.9
2016-Jul-18 07:33N 58°29' E 010°43'  

Dump ship's entire track history